sensor_id;sensor_type;location;lat;lon;timestamp;temperature;humidity
15707;DHT22;7953;54.302;10.128;2023-04-25T00:00:17;7.70;99.90
15707;DHT22;7953;54.302;10.128;2023-04-25T00:02:44;7.60;99.90
15707;DHT22;7953;54.302;10.128;2023-04-25T00:05:12;7.60;99.90
15707;DHT22;7953;54.302;10.128;2023-04-25T00:07:41;7.60;99.90
15707;DHT22;7953;54.302;10.128;2023-04-25T00:10:09;7.60;99.90
15707;DHT22;7953;54.302;10.128;2023-04-25T00:12:37;7.60;99.90
15707;DHT22;7953;54.302;10.128;2023-04-25T00:15:05;7.60;99.90
15707;DHT22;7953;54.302;10.128;2023-04-25T00:17:32;7.60;99.90
15707;DHT22;7953;54.302;10.128;2023-04-25T00:20:00;7.70;99.90
15707;DHT22;7953;54.302;10.128;2023-04-25T00:22:30;7.70;99.90
15707;DHT22;7953;54.302;10.128;2023-04-25T00:24:58;7.60;99.90
15707;DHT22;7953;54.302;10.128;2023-04-25T00:27:26;7.50;99.90
15707;DHT22;7953;54.302;10.128;2023-04-25T00:29:53;7.50;99.90
15707;DHT22;7953;54.302;10.128;2023-04-25T00:32:20;7.50;99.90
15707;DHT22;7953;54.302;10.128;2023-04-25T00:34:46;7.50;99.90
15707;DHT22;7953;54.302;10.128;2023-04-25T00:37:13;7.50;99.90
15707;DHT22;7953;54.302;10.128;2023-04-25T00:39:40;7.40;99.90
15707;DHT22;7953;54.302;10.128;2023-04-25T00:42:09;7.50;99.90
15707;DHT22;7953;54.302;10.128;2023-04-25T00:44:37;7.40;99.90
15707;DHT22;7953;54.302;10.128;2023-04-25T00:47:04;7.50;99.90
15707;DHT22;7953;54.302;10.128;2023-04-25T00:49:31;7.40;99.90
15707;DHT22;7953;54.302;10.128;2023-04-25T00:51:58;7.40;99.90
15707;DHT22;7953;54.302;10.128;2023-04-25T00:54:25;7.30;99.90
15707;DHT22;7953;54.302;10.128;2023-04-25T00:56:52;7.30;99.90
15707;DHT22;7953;54.302;10.128;2023-04-25T00:59:20;7.30;99.90
15707;DHT22;7953;54.302;10.128;2023-04-25T01:01:48;7.20;99.90
15707;DHT22;7953;54.302;10.128;2023-04-25T01:04:15;7.20;99.90
15707;DHT22;7953;54.302;10.128;2023-04-25T01:06:41;7.20;99.90
15707;DHT22;7953;54.302;10.128;2023-04-25T01:09:08;7.20;99.90
15707;DHT22;7953;54.302;10.128;2023-04-25T01:11:36;7.30;99.90
15707;DHT22;7953;54.302;10.128;2023-04-25T01:14:02;7.20;99.90
15707;DHT22;7953;54.302;10.128;2023-04-25T01:16:31;7.20;99.90
15707;DHT22;7953;54.302;10.128;2023-04-25T01:18:59;7.20;99.90
15707;DHT22;7953;54.302;10.128;2023-04-25T01:21:27;7.10;99.90
15707;DHT22;7953;54.302;10.128;2023-04-25T01:23:55;7.10;99.90
15707;DHT22;7953;54.302;10.128;2023-04-25T01:26:23;7.20;99.90
15707;DHT22;7953;54.302;10.128;2023-04-25T01:28:50;7.20;99.90
15707;DHT22;7953;54.302;10.128;2023-04-25T01:31:18;7.10;99.90
15707;DHT22;7953;54.302;10.128;2023-04-25T01:33:46;7.10;99.90
15707;DHT22;7953;54.302;10.128;2023-04-25T01:36:13;7.10;99.90
15707;DHT22;7953;54.302;10.128;2023-04-25T01:38:42;7.10;99.90
15707;DHT22;7953;54.302;10.128;2023-04-25T01:41:09;7.10;99.90
15707;DHT22;7953;54.302;10.128;2023-04-25T01:43:36;7.10;99.90
15707;DHT22;7953;54.302;10.128;2023-04-25T01:46:04;7.10;99.90
15707;DHT22;7953;54.302;10.128;2023-04-25T01:48:31;7.00;99.90
15707;DHT22;7953;54.302;10.128;2023-04-25T01:50:58;7.00;99.90
15707;DHT22;7953;54.302;10.128;2023-04-25T01:53:25;6.90;99.90
15707;DHT22;7953;54.302;10.128;2023-04-25T01:55:53;6.80;99.90
15707;DHT22;7953;54.302;10.128;2023-04-25T01:58:20;6.80;99.90
15707;DHT22;7953;54.302;10.128;2023-04-25T02:00:47;6.80;99.90
15707;DHT22;7953;54.302;10.128;2023-04-25T02:03:14;6.70;99.90
15707;DHT22;7953;54.302;10.128;2023-04-25T02:05:41;6.70;99.90
15707;DHT22;7953;54.302;10.128;2023-04-25T02:08:09;6.70;99.90
15707;DHT22;7953;54.302;10.128;2023-04-25T02:10:36;6.70;99.90
15707;DHT22;7953;54.302;10.128;2023-04-25T02:13:04;6.60;99.90
15707;DHT22;7953;54.302;10.128;2023-04-25T02:15:31;6.60;99.90
15707;DHT22;7953;54.302;10.128;2023-04-25T02:17:58;6.60;99.90
15707;DHT22;7953;54.302;10.128;2023-04-25T02:20:27;6.70;99.90
15707;DHT22;7953;54.302;10.128;2023-04-25T02:22:54;6.60;99.90
15707;DHT22;7953;54.302;10.128;2023-04-25T02:25:21;6.50;99.90
15707;DHT22;7953;54.302;10.128;2023-04-25T02:27:48;6.50;99.90
15707;DHT22;7953;54.302;10.128;2023-04-25T02:30:18;6.50;99.90
15707;DHT22;7953;54.302;10.128;2023-04-25T02:32:45;6.50;99.90
15707;DHT22;7953;54.302;10.128;2023-04-25T02:35:11;6.40;99.90
15707;DHT22;7953;54.302;10.128;2023-04-25T02:37:39;6.40;99.90
15707;DHT22;7953;54.302;10.128;2023-04-25T02:40:07;6.40;99.90
15707;DHT22;7953;54.302;10.128;2023-04-25T02:42:34;6.40;99.90
15707;DHT22;7953;54.302;10.128;2023-04-25T02:45:01;6.40;99.90
15707;DHT22;7953;54.302;10.128;2023-04-25T02:47:30;6.30;99.90
15707;DHT22;7953;54.302;10.128;2023-04-25T02:49:57;6.30;99.90
15707;DHT22;7953;54.302;10.128;2023-04-25T02:52:24;6.30;99.90
15707;DHT22;7953;54.302;10.128;2023-04-25T02:54:51;6.30;99.90
15707;DHT22;7953;54.302;10.128;2023-04-25T02:57:18;6.30;99.90
15707;DHT22;7953;54.302;10.128;2023-04-25T02:59:45;6.30;99.90
15707;DHT22;7953;54.302;10.128;2023-04-25T03:02:12;6.30;99.90
15707;DHT22;7953;54.302;10.128;2023-04-25T03:04:40;6.30;99.90
15707;DHT22;7953;54.302;10.128;2023-04-25T03:07:07;6.30;99.90
15707;DHT22;7953;54.302;10.128;2023-04-25T03:09:34;6.30;99.90
15707;DHT22;7953;54.302;10.128;2023-04-25T03:12:01;6.30;99.90
15707;DHT22;7953;54.302;10.128;2023-04-25T03:14:27;6.30;99.90
15707;DHT22;7953;54.302;10.128;2023-04-25T03:16:54;6.30;99.90
15707;DHT22;7953;54.302;10.128;2023-04-25T03:19:21;6.20;99.90
15707;DHT22;7953;54.302;10.128;2023-04-25T03:21:49;6.20;99.90
15707;DHT22;7953;54.302;10.128;2023-04-25T03:24:16;6.30;99.90
15707;DHT22;7953;54.302;10.128;2023-04-25T03:26:43;6.30;99.90
15707;DHT22;7953;54.302;10.128;2023-04-25T03:29:10;6.30;99.90
15707;DHT22;7953;54.302;10.128;2023-04-25T03:31:38;6.20;99.90
15707;DHT22;7953;54.302;10.128;2023-04-25T03:34:05;6.20;99.90
15707;DHT22;7953;54.302;10.128;2023-04-25T03:36:32;6.20;99.90
15707;DHT22;7953;54.302;10.128;2023-04-25T03:39:00;6.30;99.90
15707;DHT22;7953;54.302;10.128;2023-04-25T03:41:27;6.30;99.90
15707;DHT22;7953;54.302;10.128;2023-04-25T03:43:55;6.20;99.90
15707;DHT22;7953;54.302;10.128;2023-04-25T03:46:22;6.20;99.90
15707;DHT22;7953;54.302;10.128;2023-04-25T03:48:49;6.20;99.90
15707;DHT22;7953;54.302;10.128;2023-04-25T03:51:15;6.20;99.90
15707;DHT22;7953;54.302;10.128;2023-04-25T03:53:42;6.20;99.90
15707;DHT22;7953;54.302;10.128;2023-04-25T03:56:11;6.10;99.90
15707;DHT22;7953;54.302;10.128;2023-04-25T03:58:37;6.10;99.90
15707;DHT22;7953;54.302;10.128;2023-04-25T04:01:04;6.10;99.90
15707;DHT22;7953;54.302;10.128;2023-04-25T04:03:33;6.10;99.90
15707;DHT22;7953;54.302;10.128;2023-04-25T04:06:00;6.10;99.90
15707;DHT22;7953;54.302;10.128;2023-04-25T04:08:28;6.20;99.90
15707;DHT22;7953;54.302;10.128;2023-04-25T04:10:55;6.10;99.90
15707;DHT22;7953;54.302;10.128;2023-04-25T04:13:23;6.10;99.90
15707;DHT22;7953;54.302;10.128;2023-04-25T04:15:50;6.10;99.90
15707;DHT22;7953;54.302;10.128;2023-04-25T04:18:17;6.10;99.90
15707;DHT22;7953;54.302;10.128;2023-04-25T04:20:44;6.10;99.90
15707;DHT22;7953;54.302;10.128;2023-04-25T04:23:11;6.10;99.90
15707;DHT22;7953;54.302;10.128;2023-04-25T04:25:38;6.10;99.90
15707;DHT22;7953;54.302;10.128;2023-04-25T04:28:05;6.10;99.90
15707;DHT22;7953;54.302;10.128;2023-04-25T04:30:34;6.10;99.90
15707;DHT22;7953;54.302;10.128;2023-04-25T04:33:03;6.10;99.90
15707;DHT22;7953;54.302;10.128;2023-04-25T04:35:30;6.10;99.90
15707;DHT22;7953;54.302;10.128;2023-04-25T04:37:57;6.10;99.90
15707;DHT22;7953;54.302;10.128;2023-04-25T04:40:24;6.20;99.90
15707;DHT22;7953;54.302;10.128;2023-04-25T04:42:51;6.20;99.90
15707;DHT22;7953;54.302;10.128;2023-04-25T04:45:21;6.20;99.90
15707;DHT22;7953;54.302;10.128;2023-04-25T04:47:50;6.30;99.90
15707;DHT22;7953;54.302;10.128;2023-04-25T04:50:18;6.20;99.90
15707;DHT22;7953;54.302;10.128;2023-04-25T04:52:45;6.20;99.90
15707;DHT22;7953;54.302;10.128;2023-04-25T04:55:14;6.20;99.90
15707;DHT22;7953;54.302;10.128;2023-04-25T04:57:43;6.20;99.90
15707;DHT22;7953;54.302;10.128;2023-04-25T05:00:11;6.20;99.90
15707;DHT22;7953;54.302;10.128;2023-04-25T05:02:38;6.20;99.90
15707;DHT22;7953;54.302;10.128;2023-04-25T05:05:07;6.20;99.90
15707;DHT22;7953;54.302;10.128;2023-04-25T05:07:34;6.20;99.90
15707;DHT22;7953;54.302;10.128;2023-04-25T05:10:02;6.20;99.90
15707;DHT22;7953;54.302;10.128;2023-04-25T05:12:35;6.20;99.90
15707;DHT22;7953;54.302;10.128;2023-04-25T05:15:15;6.20;99.90
15707;DHT22;7953;54.302;10.128;2023-04-25T05:17:42;6.20;99.90
15707;DHT22;7953;54.302;10.128;2023-04-25T05:20:10;6.20;99.90
15707;DHT22;7953;54.302;10.128;2023-04-25T05:23:12;6.30;99.90
15707;DHT22;7953;54.302;10.128;2023-04-25T05:25:39;6.30;99.90
15707;DHT22;7953;54.302;10.128;2023-04-25T05:28:12;6.30;99.90
15707;DHT22;7953;54.302;10.128;2023-04-25T05:30:39;6.30;99.90
15707;DHT22;7953;54.302;10.128;2023-04-25T05:36:13;6.40;99.90
15707;DHT22;7953;54.302;10.128;2023-04-25T05:38:40;6.40;99.90
15707;DHT22;7953;54.302;10.128;2023-04-25T05:41:07;6.40;99.90
15707;DHT22;7953;54.302;10.128;2023-04-25T05:43:34;6.50;99.90
15707;DHT22;7953;54.302;10.128;2023-04-25T05:46:01;6.50;99.90
15707;DHT22;7953;54.302;10.128;2023-04-25T05:48:37;6.50;99.90
15707;DHT22;7953;54.302;10.128;2023-04-25T05:51:07;6.60;99.90
15707;DHT22;7953;54.302;10.128;2023-04-25T05:53:37;6.50;99.90
15707;DHT22;7953;54.302;10.128;2023-04-25T05:56:16;6.60;99.90
15707;DHT22;7953;54.302;10.128;2023-04-25T05:58:45;6.60;99.90
15707;DHT22;7953;54.302;10.128;2023-04-25T06:01:18;6.70;99.90
15707;DHT22;7953;54.302;10.128;2023-04-25T06:03:45;6.70;99.90
15707;DHT22;7953;54.302;10.128;2023-04-25T06:06:12;6.70;99.90
15707;DHT22;7953;54.302;10.128;2023-04-25T06:08:41;6.70;99.90
15707;DHT22;7953;54.302;10.128;2023-04-25T06:11:13;6.70;99.90
15707;DHT22;7953;54.302;10.128;2023-04-25T06:13:40;6.70;99.90
15707;DHT22;7953;54.302;10.128;2023-04-25T06:16:07;6.80;99.90
15707;DHT22;7953;54.302;10.128;2023-04-25T06:18:34;6.80;99.90
15707;DHT22;7953;54.302;10.128;2023-04-25T06:21:01;6.80;99.90
15707;DHT22;7953;54.302;10.128;2023-04-25T06:23:28;6.80;99.90
15707;DHT22;7953;54.302;10.128;2023-04-25T06:25:56;6.80;99.90
15707;DHT22;7953;54.302;10.128;2023-04-25T06:28:25;7.00;99.90
15707;DHT22;7953;54.302;10.128;2023-04-25T06:30:52;7.00;99.90
15707;DHT22;7953;54.302;10.128;2023-04-25T06:33:19;7.00;99.90
15707;DHT22;7953;54.302;10.128;2023-04-25T06:35:48;7.10;99.90
15707;DHT22;7953;54.302;10.128;2023-04-25T06:38:26;7.20;99.90
15707;DHT22;7953;54.302;10.128;2023-04-25T06:40:52;7.20;99.90
15707;DHT22;7953;54.302;10.128;2023-04-25T06:43:23;7.30;99.90
15707;DHT22;7953;54.302;10.128;2023-04-25T06:45:51;7.40;99.90
15707;DHT22;7953;54.302;10.128;2023-04-25T06:48:17;7.40;99.90
15707;DHT22;7953;54.302;10.128;2023-04-25T06:50:44;7.40;99.90
15707;DHT22;7953;54.302;10.128;2023-04-25T06:53:11;7.40;99.90
15707;DHT22;7953;54.302;10.128;2023-04-25T06:55:41;7.50;99.90
15707;DHT22;7953;54.302;10.128;2023-04-25T06:58:08;7.50;99.90
15707;DHT22;7953;54.302;10.128;2023-04-25T07:00:46;7.40;99.90
15707;DHT22;7953;54.302;10.128;2023-04-25T07:03:12;7.40;99.90
15707;DHT22;7953;54.302;10.128;2023-04-25T07:05:40;7.40;99.90
15707;DHT22;7953;54.302;10.128;2023-04-25T07:08:07;7.40;99.90
15707;DHT22;7953;54.302;10.128;2023-04-25T07:10:34;7.40;99.90
15707;DHT22;7953;54.302;10.128;2023-04-25T07:13:01;7.40;99.90
15707;DHT22;7953;54.302;10.128;2023-04-25T07:15:27;7.40;99.90
15707;DHT22;7953;54.302;10.128;2023-04-25T07:17:56;7.40;99.90
15707;DHT22;7953;54.302;10.128;2023-04-25T07:20:23;7.50;99.90
15707;DHT22;7953;54.302;10.128;2023-04-25T07:22:50;7.50;99.90
15707;DHT22;7953;54.302;10.128;2023-04-25T07:25:42;7.50;99.90
15707;DHT22;7953;54.302;10.128;2023-04-25T07:28:09;7.60;99.90
15707;DHT22;7953;54.302;10.128;2023-04-25T07:30:36;7.50;99.90
15707;DHT22;7953;54.302;10.128;2023-04-25T07:33:18;7.60;99.90
15707;DHT22;7953;54.302;10.128;2023-04-25T07:35:47;7.50;99.90
15707;DHT22;7953;54.302;10.128;2023-04-25T07:38:16;7.50;99.90
15707;DHT22;7953;54.302;10.128;2023-04-25T07:40:47;7.60;99.90
15707;DHT22;7953;54.302;10.128;2023-04-25T07:43:30;7.60;99.90
15707;DHT22;7953;54.302;10.128;2023-04-25T07:46:02;7.70;99.90
15707;DHT22;7953;54.302;10.128;2023-04-25T07:48:51;7.80;99.90
15707;DHT22;7953;54.302;10.128;2023-04-25T07:51:35;7.80;99.90
15707;DHT22;7953;54.302;10.128;2023-04-25T07:54:33;7.90;99.90
15707;DHT22;7953;54.302;10.128;2023-04-25T07:57:32;8.10;99.90
15707;DHT22;7953;54.302;10.128;2023-04-25T08:00:38;8.10;99.90
15707;DHT22;7953;54.302;10.128;2023-04-25T08:03:32;8.20;99.90
15707;DHT22;7953;54.302;10.128;2023-04-25T08:06:04;8.40;99.90
15707;DHT22;7953;54.302;10.128;2023-04-25T08:08:34;8.60;99.90
15707;DHT22;7953;54.302;10.128;2023-04-25T08:11:01;8.80;99.90
15707;DHT22;7953;54.302;10.128;2023-04-25T08:13:45;8.70;99.90
15707;DHT22;7953;54.302;10.128;2023-04-25T08:16:15;8.80;99.90
15707;DHT22;7953;54.302;10.128;2023-04-25T08:18:42;8.80;99.90
15707;DHT22;7953;54.302;10.128;2023-04-25T08:21:24;8.70;99.90
15707;DHT22;7953;54.302;10.128;2023-04-25T08:23:57;8.60;99.90
15707;DHT22;7953;54.302;10.128;2023-04-25T08:26:29;8.50;99.90
15707;DHT22;7953;54.302;10.128;2023-04-25T08:29:07;8.40;99.90
15707;DHT22;7953;54.302;10.128;2023-04-25T08:31:47;8.40;99.90
15707;DHT22;7953;54.302;10.128;2023-04-25T08:34:14;8.40;99.90
15707;DHT22;7953;54.302;10.128;2023-04-25T08:37:01;8.50;99.90
15707;DHT22;7953;54.302;10.128;2023-04-25T08:39:39;8.60;99.90
15707;DHT22;7953;54.302;10.128;2023-04-25T08:42:21;8.70;99.90
15707;DHT22;7953;54.302;10.128;2023-04-25T08:44:59;8.80;99.90
15707;DHT22;7953;54.302;10.128;2023-04-25T08:47:53;9.10;99.90
15707;DHT22;7953;54.302;10.128;2023-04-25T08:50:29;9.30;99.90
15707;DHT22;7953;54.302;10.128;2023-04-25T08:53:12;9.40;99.90
15707;DHT22;7953;54.302;10.128;2023-04-25T08:55:43;9.40;99.90
15707;DHT22;7953;54.302;10.128;2023-04-25T08:58:19;9.30;99.90
15707;DHT22;7953;54.302;10.128;2023-04-25T09:00:51;9.30;99.90
15707;DHT22;7953;54.302;10.128;2023-04-25T09:03:19;9.10;99.90
15707;DHT22;7953;54.302;10.128;2023-04-25T09:05:46;9.10;99.90
15707;DHT22;7953;54.302;10.128;2023-04-25T09:08:18;9.20;99.90
15707;DHT22;7953;54.302;10.128;2023-04-25T09:10:45;9.20;99.90
15707;DHT22;7953;54.302;10.128;2023-04-25T09:13:24;9.10;99.90
15707;DHT22;7953;54.302;10.128;2023-04-25T09:15:54;9.20;99.90
15707;DHT22;7953;54.302;10.128;2023-04-25T09:18:24;9.30;99.90
15707;DHT22;7953;54.302;10.128;2023-04-25T09:20:52;9.20;99.90
15707;DHT22;7953;54.302;10.128;2023-04-25T09:23:22;9.40;99.90
15707;DHT22;7953;54.302;10.128;2023-04-25T09:25:55;9.50;99.90
15707;DHT22;7953;54.302;10.128;2023-04-25T09:28:24;9.40;99.90
15707;DHT22;7953;54.302;10.128;2023-04-25T09:30:55;9.60;99.90
15707;DHT22;7953;54.302;10.128;2023-04-25T09:33:31;9.70;99.90
15707;DHT22;7953;54.302;10.128;2023-04-25T09:36:02;9.80;99.90
15707;DHT22;7953;54.302;10.128;2023-04-25T09:38:47;9.90;99.90
15707;DHT22;7953;54.302;10.128;2023-04-25T09:41:22;10.00;99.90
15707;DHT22;7953;54.302;10.128;2023-04-25T09:43:50;10.30;99.90
15707;DHT22;7953;54.302;10.128;2023-04-25T09:46:17;10.30;99.90
15707;DHT22;7953;54.302;10.128;2023-04-25T09:48:49;10.30;99.90
15707;DHT22;7953;54.302;10.128;2023-04-25T09:51:19;10.40;99.90
15707;DHT22;7953;54.302;10.128;2023-04-25T09:53:48;10.40;99.90
15707;DHT22;7953;54.302;10.128;2023-04-25T09:56:18;10.60;99.90
15707;DHT22;7953;54.302;10.128;2023-04-25T09:58:47;10.50;99.90
15707;DHT22;7953;54.302;10.128;2023-04-25T10:01:16;10.50;99.90
15707;DHT22;7953;54.302;10.128;2023-04-25T10:03:44;10.50;99.90
15707;DHT22;7953;54.302;10.128;2023-04-25T10:06:17;10.60;99.90
15707;DHT22;7953;54.302;10.128;2023-04-25T10:08:51;10.50;99.90
15707;DHT22;7953;54.302;10.128;2023-04-25T10:11:21;10.50;99.90
15707;DHT22;7953;54.302;10.128;2023-04-25T10:13:50;10.20;99.90
15707;DHT22;7953;54.302;10.128;2023-04-25T10:16:18;9.90;99.90
15707;DHT22;7953;54.302;10.128;2023-04-25T10:18:47;9.60;99.90
15707;DHT22;7953;54.302;10.128;2023-04-25T10:21:16;9.30;99.90
15707;DHT22;7953;54.302;10.128;2023-04-25T10:23:44;9.20;99.90
15707;DHT22;7953;54.302;10.128;2023-04-25T10:26:13;9.50;99.90
15707;DHT22;7953;54.302;10.128;2023-04-25T10:28:56;9.80;99.90
15707;DHT22;7953;54.302;10.128;2023-04-25T10:31:23;10.20;99.90
15707;DHT22;7953;54.302;10.128;2023-04-25T10:33:53;10.20;99.90
15707;DHT22;7953;54.302;10.128;2023-04-25T10:36:22;10.20;99.90
15707;DHT22;7953;54.302;10.128;2023-04-25T10:38:50;10.10;99.90
15707;DHT22;7953;54.302;10.128;2023-04-25T10:41:21;9.90;99.90
15707;DHT22;7953;54.302;10.128;2023-04-25T10:44:00;9.80;99.90
15707;DHT22;7953;54.302;10.128;2023-04-25T10:46:29;10.00;99.90
15707;DHT22;7953;54.302;10.128;2023-04-25T10:49:02;9.90;99.90
15707;DHT22;7953;54.302;10.128;2023-04-25T10:51:30;10.00;99.90
15707;DHT22;7953;54.302;10.128;2023-04-25T10:53:59;10.20;99.90
15707;DHT22;7953;54.302;10.128;2023-04-25T10:56:29;10.40;99.90
15707;DHT22;7953;54.302;10.128;2023-04-25T10:59:07;10.50;99.90
15707;DHT22;7953;54.302;10.128;2023-04-25T11:01:40;10.90;99.90
15707;DHT22;7953;54.302;10.128;2023-04-25T11:04:19;11.10;99.90
15707;DHT22;7953;54.302;10.128;2023-04-25T11:07:09;11.20;99.90
15707;DHT22;7953;54.302;10.128;2023-04-25T11:09:39;11.40;99.90
15707;DHT22;7953;54.302;10.128;2023-04-25T11:12:09;11.60;99.90
15707;DHT22;7953;54.302;10.128;2023-04-25T11:14:37;11.60;99.90
15707;DHT22;7953;54.302;10.128;2023-04-25T11:17:04;11.30;99.90
15707;DHT22;7953;54.302;10.128;2023-04-25T11:19:35;11.00;99.90
15707;DHT22;7953;54.302;10.128;2023-04-25T11:22:02;10.40;99.90
15707;DHT22;7953;54.302;10.128;2023-04-25T11:24:30;9.90;99.90
15707;DHT22;7953;54.302;10.128;2023-04-25T11:27:00;9.60;99.90
15707;DHT22;7953;54.302;10.128;2023-04-25T11:29:33;9.60;99.90
15707;DHT22;7953;54.302;10.128;2023-04-25T11:32:07;9.70;99.90
15707;DHT22;7953;54.302;10.128;2023-04-25T11:34:35;9.80;99.90
15707;DHT22;7953;54.302;10.128;2023-04-25T11:37:02;9.80;99.90
15707;DHT22;7953;54.302;10.128;2023-04-25T11:39:30;10.10;99.90
15707;DHT22;7953;54.302;10.128;2023-04-25T11:41:57;10.20;99.90
15707;DHT22;7953;54.302;10.128;2023-04-25T11:44:24;10.40;99.90
15707;DHT22;7953;54.302;10.128;2023-04-25T11:46:52;10.80;99.90
15707;DHT22;7953;54.302;10.128;2023-04-25T11:49:19;11.10;99.90
15707;DHT22;7953;54.302;10.128;2023-04-25T11:51:49;10.90;99.90
15707;DHT22;7953;54.302;10.128;2023-04-25T11:54:17;10.80;99.90
15707;DHT22;7953;54.302;10.128;2023-04-25T11:56:44;11.00;99.90
15707;DHT22;7953;54.302;10.128;2023-04-25T11:59:12;11.00;99.90
15707;DHT22;7953;54.302;10.128;2023-04-25T12:01:48;10.90;99.90
15707;DHT22;7953;54.302;10.128;2023-04-25T12:04:17;10.40;99.90
15707;DHT22;7953;54.302;10.128;2023-04-25T12:06:53;10.30;99.90
15707;DHT22;7953;54.302;10.128;2023-04-25T12:09:29;10.30;99.90
15707;DHT22;7953;54.302;10.128;2023-04-25T12:11:59;10.00;99.90
15707;DHT22;7953;54.302;10.128;2023-04-25T12:14:31;9.80;99.90
15707;DHT22;7953;54.302;10.128;2023-04-25T12:17:02;9.70;99.90
15707;DHT22;7953;54.302;10.128;2023-04-25T12:19:34;9.70;99.90
15707;DHT22;7953;54.302;10.128;2023-04-25T12:22:01;9.90;99.90
15707;DHT22;7953;54.302;10.128;2023-04-25T12:24:29;10.20;99.90
15707;DHT22;7953;54.302;10.128;2023-04-25T12:27:02;10.50;99.90
15707;DHT22;7953;54.302;10.128;2023-04-25T12:29:32;10.60;99.90
15707;DHT22;7953;54.302;10.128;2023-04-25T12:32:00;10.50;99.90
15707;DHT22;7953;54.302;10.128;2023-04-25T12:34:28;10.20;99.90
15707;DHT22;7953;54.302;10.128;2023-04-25T12:36:58;10.00;99.90
15707;DHT22;7953;54.302;10.128;2023-04-25T12:39:25;10.00;99.90
15707;DHT22;7953;54.302;10.128;2023-04-25T12:41:53;9.90;99.90
15707;DHT22;7953;54.302;10.128;2023-04-25T12:44:20;10.00;99.90
15707;DHT22;7953;54.302;10.128;2023-04-25T12:46:48;10.30;99.90
15707;DHT22;7953;54.302;10.128;2023-04-25T12:49:15;10.50;99.90
15707;DHT22;7953;54.302;10.128;2023-04-25T12:51:42;10.80;99.90
15707;DHT22;7953;54.302;10.128;2023-04-25T12:54:11;10.80;99.90
15707;DHT22;7953;54.302;10.128;2023-04-25T12:56:40;10.60;99.90
15707;DHT22;7953;54.302;10.128;2023-04-25T12:59:07;10.30;99.90
15707;DHT22;7953;54.302;10.128;2023-04-25T13:01:35;10.00;99.90
15707;DHT22;7953;54.302;10.128;2023-04-25T13:04:05;9.90;99.90
15707;DHT22;7953;54.302;10.128;2023-04-25T13:06:31;9.80;99.90
15707;DHT22;7953;54.302;10.128;2023-04-25T13:08:58;9.80;99.90
15707;DHT22;7953;54.302;10.128;2023-04-25T13:11:27;9.90;99.90
15707;DHT22;7953;54.302;10.128;2023-04-25T13:13:54;10.30;99.90
15707;DHT22;7953;54.302;10.128;2023-04-25T13:16:21;10.70;99.90
15707;DHT22;7953;54.302;10.128;2023-04-25T13:18:48;11.00;99.90
15707;DHT22;7953;54.302;10.128;2023-04-25T13:21:18;11.20;99.90
15707;DHT22;7953;54.302;10.128;2023-04-25T13:23:44;11.40;99.90
15707;DHT22;7953;54.302;10.128;2023-04-25T13:26:12;11.40;99.90
15707;DHT22;7953;54.302;10.128;2023-04-25T13:28:40;11.60;99.90
15707;DHT22;7953;54.302;10.128;2023-04-25T13:31:07;11.60;99.90
15707;DHT22;7953;54.302;10.128;2023-04-25T13:33:34;11.80;99.90
15707;DHT22;7953;54.302;10.128;2023-04-25T13:36:03;12.10;99.90
15707;DHT22;7953;54.302;10.128;2023-04-25T13:38:31;12.00;99.90
15707;DHT22;7953;54.302;10.128;2023-04-25T13:40:57;11.70;99.90
15707;DHT22;7953;54.302;10.128;2023-04-25T13:43:28;11.50;99.90
15707;DHT22;7953;54.302;10.128;2023-04-25T13:46:00;11.30;99.90
15707;DHT22;7953;54.302;10.128;2023-04-25T13:48:27;11.00;99.90
15707;DHT22;7953;54.302;10.128;2023-04-25T13:50:54;10.80;99.90
15707;DHT22;7953;54.302;10.128;2023-04-25T13:53:21;10.50;99.90
15707;DHT22;7953;54.302;10.128;2023-04-25T13:55:48;10.50;99.90
15707;DHT22;7953;54.302;10.128;2023-04-25T13:58:15;10.40;99.90
15707;DHT22;7953;54.302;10.128;2023-04-25T14:00:41;10.50;99.90
15707;DHT22;7953;54.302;10.128;2023-04-25T14:03:12;10.50;99.90
15707;DHT22;7953;54.302;10.128;2023-04-25T14:05:41;10.50;99.90
15707;DHT22;7953;54.302;10.128;2023-04-25T14:08:09;10.40;99.90
15707;DHT22;7953;54.302;10.128;2023-04-25T14:10:36;10.30;99.90
15707;DHT22;7953;54.302;10.128;2023-04-25T14:13:04;10.00;99.90
15707;DHT22;7953;54.302;10.128;2023-04-25T14:15:33;9.80;99.90
15707;DHT22;7953;54.302;10.128;2023-04-25T14:18:00;9.80;99.90
15707;DHT22;7953;54.302;10.128;2023-04-25T14:20:29;9.90;99.90
15707;DHT22;7953;54.302;10.128;2023-04-25T14:22:58;9.80;99.90
15707;DHT22;7953;54.302;10.128;2023-04-25T14:25:25;9.60;99.90
15707;DHT22;7953;54.302;10.128;2023-04-25T14:27:52;9.40;99.90
15707;DHT22;7953;54.302;10.128;2023-04-25T14:30:20;9.10;99.90
15707;DHT22;7953;54.302;10.128;2023-04-25T14:32:48;8.80;99.90
15707;DHT22;7953;54.302;10.128;2023-04-25T14:35:15;8.50;99.90
15707;DHT22;7953;54.302;10.128;2023-04-25T14:37:43;8.20;99.90
15707;DHT22;7953;54.302;10.128;2023-04-25T14:40:11;8.10;99.90
15707;DHT22;7953;54.302;10.128;2023-04-25T14:42:39;8.00;99.90
15707;DHT22;7953;54.302;10.128;2023-04-25T14:45:07;8.10;99.90
15707;DHT22;7953;54.302;10.128;2023-04-25T14:47:35;8.10;99.90
15707;DHT22;7953;54.302;10.128;2023-04-25T14:50:02;8.30;99.90
15707;DHT22;7953;54.302;10.128;2023-04-25T14:52:30;8.80;99.90
15707;DHT22;7953;54.302;10.128;2023-04-25T14:54:58;9.10;99.90
15707;DHT22;7953;54.302;10.128;2023-04-25T14:57:30;9.50;99.90
15707;DHT22;7953;54.302;10.128;2023-04-25T14:59:57;9.80;99.90
15707;DHT22;7953;54.302;10.128;2023-04-25T15:02:24;10.20;99.90
15707;DHT22;7953;54.302;10.128;2023-04-25T15:04:51;10.40;99.90
15707;DHT22;7953;54.302;10.128;2023-04-25T15:07:18;10.40;99.90
15707;DHT22;7953;54.302;10.128;2023-04-25T15:09:47;10.70;99.90
15707;DHT22;7953;54.302;10.128;2023-04-25T15:12:16;10.80;99.90
15707;DHT22;7953;54.302;10.128;2023-04-25T15:14:43;10.90;99.90
15707;DHT22;7953;54.302;10.128;2023-04-25T15:17:10;10.50;99.90
15707;DHT22;7953;54.302;10.128;2023-04-25T15:19:39;10.30;99.90
15707;DHT22;7953;54.302;10.128;2023-04-25T15:22:06;9.90;99.90
15707;DHT22;7953;54.302;10.128;2023-04-25T15:24:34;9.70;99.90
15707;DHT22;7953;54.302;10.128;2023-04-25T15:27:01;9.60;99.90
15707;DHT22;7953;54.302;10.128;2023-04-25T15:29:31;9.50;99.90
15707;DHT22;7953;54.302;10.128;2023-04-25T15:31:58;9.30;99.90
15707;DHT22;7953;54.302;10.128;2023-04-25T15:34:25;9.30;99.90
15707;DHT22;7953;54.302;10.128;2023-04-25T15:36:52;9.40;99.90
15707;DHT22;7953;54.302;10.128;2023-04-25T15:39:19;9.50;99.90
15707;DHT22;7953;54.302;10.128;2023-04-25T15:41:46;9.50;99.90
15707;DHT22;7953;54.302;10.128;2023-04-25T15:44:13;9.60;99.90
15707;DHT22;7953;54.302;10.128;2023-04-25T15:46:41;9.70;99.90
15707;DHT22;7953;54.302;10.128;2023-04-25T15:49:09;9.80;99.90
15707;DHT22;7953;54.302;10.128;2023-04-25T15:51:36;10.10;99.90
15707;DHT22;7953;54.302;10.128;2023-04-25T15:54:04;10.40;99.90
15707;DHT22;7953;54.302;10.128;2023-04-25T15:56:31;10.60;99.90
15707;DHT22;7953;54.302;10.128;2023-04-25T15:58:58;10.60;99.90